Time;durP1;ratioP1;P1;durP2;ratioP2;P2;SDS_P1;SDS_P2;PMS_P1;PMS_P2;Temp;Humidity;BMP_temperature;BMP_pressure;BME280_temperature;BME280_humidity;BME280_pressure;Samples;Min_cycle;Max_cycle;Signal;HPM_P1;HPM_P2
2021/12/22 00:02:28;;;;;;;13.35;6.32;;;;;;;-8.23;68.38;94093.44;5093263;28;20489;-50
2021/12/22 00:04:54;;;;;;;;;;;;;;;-8.18;67.64;94094.88;5091136;28;20031;-46
2021/12/22 00:07:20;;;;;;;12.32;7.32;;;;;;;-8.34;67.43;94100.97;5092168;28;20305;-48
2021/12/22 00:09:46;;;;;;;10.65;5.90;;;;;;;-8.32;68.05;94095.94;5090605;28;20024;-51
2021/12/22 00:12:11;;;;;;;18.67;8.70;;;;;;;-8.23;68.05;94098.03;5089901;28;20012;-50
2021/12/22 00:14:37;;;;;;;26.08;9.70;;;;;;;-8.48;67.87;94103.16;5091123;28;20028;-50
2021/12/22 00:17:03;;;;;;;13.13;7.85;;;;;;;-8.56;68.65;94099.84;5091172;28;20028;-47
2021/12/22 00:19:28;;;;;;;23.48;7.50;;;;;;;-9.02;68.73;94076.59;5091151;28;20027;-49
2021/12/22 00:21:54;;;;;;;20.35;9.57;;;;;;;-8.89;68.94;94108.88;5091330;28;20026;-50
2021/12/22 00:24:19;;;;;;;13.48;7.43;;;;;;;-8.90;69.17;94102.75;5091459;28;20451;-50
2021/12/22 00:26:45;;;;;;;12.32;8.52;;;;;;;-8.81;68.89;94105.66;5091447;28;20016;-47
2021/12/22 00:29:12;;;;;;;6.28;5.15;;;;;;;-8.96;69.35;94103.63;5090570;28;20020;-48
2021/12/22 00:31:57;;;;;;;14.55;6.55;;;;;;;-8.76;70.10;94099.84;5094842;28;20036;-49
2021/12/22 00:34:26;;;;;;;11.82;6.68;;;;;;;-8.90;69.29;94105.44;5095302;28;20380;-47
2021/12/22 00:36:51;;;;;;;12.98;5.57;;;;;;;-8.69;68.69;94101.63;5095082;28;20374;-47
2021/12/22 00:39:17;;;;;;;14.95;6.60;;;;;;;-8.61;67.45;94111.03;5111416;28;20088;-46
2021/12/22 00:41:42;;;;;;;8.15;5.55;;;;;;;-8.58;68.12;94112.91;5115162;27;20035;-41
2021/12/22 00:44:09;;;;;;;16.13;8.02;;;;;;;-8.64;67.41;94109.94;5114925;28;20024;-41
2021/12/22 00:46:35;;;;;;;12.88;7.10;;;;;;;-8.73;67.78;94115.09;5114978;28;20384;-42
2021/12/22 00:49:00;;;;;;;12.95;8.00;;;;;;;-8.82;67.77;94119.44;5114976;27;20085;-41
2021/12/22 00:51:26;;;;;;;15.30;6.25;;;;;;;-8.79;67.89;94118.66;5114468;28;20070;-41
2021/12/22 00:53:51;;;;;;;8.77;4.63;;;;;;;-8.83;67.76;94125.94;5114492;28;20043;-41
2021/12/22 00:56:17;;;;;;;10.95;5.38;;;;;;;-8.86;67.71;94121.44;5113825;27;20016;-45
2021/12/22 00:58:42;;;;;;;10.05;4.20;;;;;;;-8.89;66.73;94092.81;5114367;28;20451;-41
2021/12/22 01:01:08;;;;;;;8.90;5.40;;;;;;;-8.80;67.50;94128.59;5114645;27;20057;-40
2021/12/22 01:03:35;;;;;;;9.43;6.00;;;;;;;-8.95;67.10;94129.22;5101865;28;20526;-40
2021/12/22 01:06:01;;;;;;;14.25;8.32;;;;;;;-9.10;68.19;94128.72;5083112;28;20078;-42
2021/12/22 01:08:26;;;;;;;12.20;7.38;;;;;;;-9.12;67.61;94120.34;5083305;28;20091;-46
2021/12/22 01:10:52;;;;;;;17.52;8.23;;;;;;;-9.05;67.33;94114.13;5098398;28;20114;-43
2021/12/22 01:13:17;;;;;;;10.23;4.75;;;;;;;-9.36;68.78;94108.13;5114981;28;20069;-43
2021/12/22 01:15:43;;;;;;;8.70;5.22;;;;;;;-9.18;70.11;94105.19;5114450;28;20513;-44
2021/12/22 01:18:13;;;;;;;12.88;5.70;;;;;;;-8.97;67.24;94100.22;5114651;28;20016;-43
2021/12/22 01:20:59;;;;;;;10.88;5.95;;;;;;;-8.86;66.30;94097.34;5114870;28;20027;-43
2021/12/22 01:23:25;;;;;;;11.55;6.18;;;;;;;-8.98;67.19;94100.59;5114425;28;20480;-43
2021/12/22 01:25:51;;;;;;;10.23;6.63;;;;;;;-9.11;67.32;94089.75;5114312;28;20115;-43
2021/12/22 01:28:17;;;;;;;8.32;5.15;;;;;;;-9.31;67.24;94095.03;5114206;28;20110;-44
2021/12/22 01:30:46;;;;;;;9.10;5.57;;;;;;;-9.55;67.00;94098.84;5114554;28;20032;-43
2021/12/22 01:33:13;;;;;;;6.63;4.10;;;;;;;-9.41;66.37;94089.88;5114295;28;20024;-45
2021/12/22 01:35:39;;;;;;;8.18;4.40;;;;;;;-9.25;66.30;94086.56;5114133;28;20106;-43
2021/12/22 01:38:05;;;;;;;10.07;5.53;;;;;;;-9.20;66.13;94080.75;5114112;28;20057;-43
2021/12/22 01:40:33;;;;;;;8.20;5.28;;;;;;;-9.20;66.23;94086.84;5114060;28;20023;-45
2021/12/22 01:43:01;;;;;;;8.10;4.00;;;;;;;-9.38;67.78;94081.81;5114059;28;20028;-46
2021/12/22 01:51:08;;;;;;;8.50;5.97;;;;;;;-9.40;67.20;94072.69;5114228;28;20440;-45
2021/12/22 01:53:41;;;;;;;8.88;4.65;;;;;;;-9.58;66.83;94072.97;5100434;28;20055;-46
2021/12/22 01:56:23;;;;;;;3.47;2.80;;;;;;;-9.69;67.14;94064.34;5092130;28;20027;-44
2021/12/22 01:58:51;;;;;;;3.58;2.47;;;;;;;-9.72;67.02;94064.41;5093370;28;20420;-45
2021/12/22 02:01:18;;;;;;;5.38;3.20;;;;;;;-9.71;67.56;94042.63;5093320;28;20028;-44
2021/12/22 02:03:45;;;;;;;5.70;4.18;;;;;;;-9.52;66.29;94065.22;5093397;28;20028;-43
2021/12/22 02:06:11;;;;;;;18.00;7.22;;;;;;;-9.39;66.35;94064.25;5093571;28;20409;-43
2021/12/22 02:08:38;;;;;;;19.33;7.55;;;;;;;-9.48;65.89;94065.91;5093447;28;20026;-42
2021/12/22 02:11:04;;;;;;;22.00;8.75;;;;;;;-9.53;66.36;94061.78;5093397;28;20115;-42
2021/12/22 02:13:35;;;;;;;39.85;16.30;;;;;;;-9.65;65.89;94065.03;5093333;28;20024;-43
2021/12/22 02:16:09;;;;;;;63.33;22.30;;;;;;;-9.76;66.31;94055.66;5093276;28;20038;-45
2021/12/22 02:18:38;;;;;;;28.95;10.30;;;;;;;-9.89;67.33;94055.47;5093260;28;20020;-44
2021/12/22 02:21:04;;;;;;;8.65;4.45;;;;;;;-10.08;66.42;94053.47;5093295;28;20027;-45
2021/12/22 02:23:30;;;;;;;2.75;1.98;;;;;;;-10.51;66.30;94061.31;5093171;28;20027;-44
2021/12/22 02:26:07;;;;;;;3.10;2.58;;;;;;;-10.61;68.11;94062.19;5093052;28;20032;-43
2021/12/22 02:28:35;;;;;;;2.60;2.40;;;;;;;-10.68;67.14;94029.53;5092910;28;20228;-43
2021/12/22 02:31:01;;;;;;;;;;;;;;;-10.38;66.78;94056.97;5093568;28;20104;-43
2021/12/22 02:33:37;;;;;;;7.20;3.08;;;;;;;-10.28;66.94;94057.97;5093221;28;20361;-43
2021/12/22 02:38:52;;;;;;;6.22;4.43;;;;;;;-10.34;67.14;94056.91;5092917;28;20027;-42
2021/12/22 02:41:37;;;;;;;4.27;3.23;;;;;;;-10.27;67.74;94065.59;5092893;28;20496;-43
2021/12/22 02:44:04;;;;;;;5.68;3.28;;;;;;;-10.28;66.50;94052.63;5092408;28;20414;-43
2021/12/22 02:46:32;;;;;;;9.88;6.50;;;;;;;-10.23;66.44;94054.84;5092509;28;20048;-43
2021/12/22 02:49:00;;;;;;;9.88;5.68;;;;;;;-10.33;66.40;94045.09;5092418;28;20120;-43
2021/12/22 02:51:28;;;;;;;;;;;;;;;-10.51;67.73;94056.00;5092939;28;20043;-42
2021/12/22 02:54:20;;;;;;;14.68;8.15;;;;;;;-10.46;68.49;94052.13;5091487;28;19908;-43
2021/12/22 02:59:36;;;;;;;18.58;8.05;;;;;;;-10.30;68.92;94055.72;5092063;28;20040;-42
2021/12/22 03:04:45;;;;;;;17.45;8.40;;;;;;;-10.08;66.66;94046.22;5092174;28;20046;-42
2021/12/22 03:07:14;;;;;;;17.13;8.50;;;;;;;-9.99;66.04;94051.06;5092150;28;20028;-43
2021/12/22 03:09:40;;;;;;;18.00;9.73;;;;;;;-9.94;65.23;94044.50;5092526;28;20040;-43
2021/12/22 03:12:09;;;;;;;16.35;8.65;;;;;;;-10.15;66.13;94042.91;5091878;28;20480;-42
2021/12/22 03:14:35;;;;;;;11.23;6.47;;;;;;;-10.15;66.66;94048.25;5091940;28;20055;-44
2021/12/22 03:17:00;;;;;;;12.43;6.15;;;;;;;-10.19;66.05;94044.88;5092118;28;20430;-43
2021/12/22 03:19:28;;;;;;;10.80;6.38;;;;;;;-10.23;65.43;94052.94;5106693;28;20070;-42
2021/12/22 03:22:00;;;;;;;12.32;5.97;;;;;;;-10.26;65.18;94023.63;5111885;28;20020;-41
2021/12/22 03:24:27;;;;;;;7.43;4.43;;;;;;;-10.23;65.63;94054.84;5112078;28;20073;-42
2021/12/22 03:26:52;;;;;;;6.30;4.32;;;;;;;-10.36;65.79;94051.22;5111598;28;20108;-40
2021/12/22 03:29:19;;;;;;;9.30;4.82;;;;;;;-10.21;65.49;94057.88;5111799;28;20054;-40
2021/12/22 03:31:46;;;;;;;9.63;5.78;;;;;;;-10.49;65.77;94052.91;5092277;28;20028;-40
2021/12/22 03:34:13;;;;;;;12.93;5.17;;;;;;;-10.45;67.00;94062.38;5091715;28;20081;-41
2021/12/22 03:36:41;;;;;;;8.35;4.70;;;;;;;-10.46;66.78;94058.19;5091632;28;20509;-41
2021/12/22 03:39:07;;;;;;;;;;;;;;;-10.50;65.94;94062.09;5092168;28;20061;-41
2021/12/22 03:41:34;;;;;;;8.23;4.68;;;;;;;-10.57;65.66;94067.50;5091544;28;19912;-40
2021/12/22 03:44:01;;;;;;;15.10;8.37;;;;;;;-10.56;65.81;94061.75;5091510;28;20513;-40
2021/12/22 03:46:26;;;;;;;14.50;7.10;;;;;;;-10.55;65.41;94060.63;5091480;28;20842;-40
2021/12/22 03:48:52;;;;;;;14.18;6.35;;;;;;;-10.48;66.57;94065.13;5091303;28;20031;-42
2021/12/22 03:51:17;;;;;;;10.10;5.78;;;;;;;-10.66;66.87;94075.22;5091550;28;20055;-42
2021/12/22 03:53:43;;;;;;;10.55;6.20;;;;;;;-10.70;68.22;94069.94;5091593;28;20028;-41
2021/12/22 03:56:08;;;;;;;9.77;5.97;;;;;;;-10.88;67.38;94072.81;5091140;28;20615;-41
2021/12/22 03:58:34;;;;;;;13.40;7.18;;;;;;;-10.67;67.59;94081.69;5091269;28;20032;-42
2021/12/22 04:00:59;;;;;;;17.08;5.93;;;;;;;-10.80;66.70;94060.13;5090563;28;20081;-41
2021/12/22 04:03:30;;;;;;;17.13;8.07;;;;;;;-10.83;65.29;94071.63;5091020;28;20020;-42
2021/12/22 04:05:55;;;;;;;14.40;4.68;;;;;;;-10.88;65.42;94080.81;5095537;28;20489;-42
2021/12/22 04:08:21;;;;;;;9.05;3.92;;;;;;;-11.42;65.74;94078.28;5095347;28;20026;-43
2021/12/22 04:10:47;;;;;;;7.13;4.43;;;;;;;-11.35;66.28;94068.34;5095479;28;20103;-43
2021/12/22 04:13:13;;;;;;;8.00;4.75;;;;;;;-11.43;66.56;94071.47;5095536;28;20028;-44
2021/12/22 04:15:39;;;;;;;8.13;4.07;;;;;;;-11.31;66.24;94074.38;5095323;28;20428;-44
2021/12/22 04:18:05;;;;;;;16.92;6.32;;;;;;;-11.40;66.28;94070.66;5095202;28;20069;-41
2021/12/22 04:20:30;;;;;;;20.95;10.80;;;;;;;-11.04;65.78;94087.81;5095558;28;20039;-41
2021/12/22 04:22:57;;;;;;;14.80;8.30;;;;;;;-11.00;65.02;94085.91;5095567;28;20047;-41
2021/12/22 04:25:23;;;;;;;17.38;9.00;;;;;;;-11.18;65.79;94072.72;5095185;28;20028;-41
2021/12/22 04:27:51;;;;;;;15.52;8.25;;;;;;;-11.32;66.64;94096.06;5095044;28;20382;-42
2021/12/22 04:30:17;;;;;;;11.77;7.10;;;;;;;-11.32;68.37;94093.41;5095103;28;20032;-42
2021/12/22 04:32:43;;;;;;;20.27;10.13;;;;;;;-11.80;68.64;94058.84;5094998;28;20489;-42
2021/12/22 04:35:08;;;;;;;17.15;8.20;;;;;;;-11.47;68.54;94098.09;5095325;28;20024;-41
2021/12/22 04:37:34;;;;;;;13.88;7.97;;;;;;;-11.47;69.18;94094.69;5095147;28;20031;-41
2021/12/22 04:39:59;;;;;;;13.77;7.82;;;;;;;-11.24;68.08;94100.22;5094849;28;20073;-41
2021/12/22 04:42:25;;;;;;;16.30;10.00;;;;;;;-11.17;66.87;94092.88;5094686;28;20055;-41
2021/12/22 04:44:54;;;;;;;15.50;8.80;;;;;;;-11.08;66.11;94097.75;5095175;28;20050;-41
2021/12/22 04:47:20;;;;;;;24.05;10.43;;;;;;;-11.03;65.43;94100.78;5094800;28;20070;-40
2021/12/22 04:49:46;;;;;;;15.60;7.40;;;;;;;-10.85;65.34;94106.66;5094557;28;20016;-41
2021/12/22 04:52:17;;;;;;;15.55;6.68;;;;;;;-11.20;66.18;94112.34;5094636;28;20032;-41
2021/12/22 04:55:03;;;;;;;13.88;7.00;;;;;;;-11.05;66.28;94105.75;5094702;28;20043;-42
2021/12/22 04:57:29;;;;;;;13.90;8.32;;;;;;;-11.28;65.72;94091.50;5099006;28;20024;-41
2021/12/22 04:59:55;;;;;;;16.63;10.02;;;;;;;-11.11;66.24;94101.97;5094565;28;20036;-41
2021/12/22 05:02:21;;;;;;;12.20;7.63;;;;;;;-11.11;65.46;94103.91;5113594;28;20031;-41
2021/12/22 05:04:46;;;;;;;12.98;8.35;;;;;;;-11.26;66.15;94103.25;5115087;28;20031;-42
2021/12/22 05:07:12;;;;;;;10.82;6.25;;;;;;;-11.17;65.58;94110.78;5115109;28;20051;-41
2021/12/22 05:09:37;;;;;;;13.68;6.80;;;;;;;-11.13;65.58;94109.59;5114901;27;20446;-42
2021/12/22 05:12:03;;;;;;;17.75;9.20;;;;;;;-11.34;66.01;94112.47;5114840;28;20036;-42
2021/12/22 05:14:29;;;;;;;21.42;10.75;;;;;;;-11.24;66.34;94111.59;5114944;28;20035;-43
2021/12/22 05:17:00;;;;;;;24.13;12.23;;;;;;;-11.33;66.26;94116.66;5113830;28;20024;-41
2021/12/22 05:19:26;;;;;;;15.63;9.93;;;;;;;-11.26;65.51;94121.91;5114877;28;20385;-43
2021/12/22 05:21:52;;;;;;;18.98;10.50;;;;;;;-11.24;65.99;94121.53;5114741;28;20026;-41
2021/12/22 05:24:17;;;;;;;17.98;10.82;;;;;;;-11.37;67.26;94123.94;5114734;28;20106;-43
2021/12/22 05:26:43;;;;;;;31.45;14.35;;;;;;;-11.36;67.10;94117.44;5114650;28;20047;-42
2021/12/22 05:29:08;;;;;;;37.97;17.35;;;;;;;-11.28;65.60;94118.88;5114224;28;20023;-42
2021/12/22 05:31:34;;;;;;;26.92;14.52;;;;;;;-11.37;64.82;94123.16;5114022;28;20115;-41
2021/12/22 05:34:00;;;;;;;26.35;13.23;;;;;;;-11.34;65.64;94128.44;5114251;28;20061;-41
2021/12/22 05:36:26;;;;;;;20.38;11.98;;;;;;;-11.28;65.70;94124.22;5114541;28;20023;-43
2021/12/22 05:38:52;;;;;;;16.73;8.27;;;;;;;-11.29;65.39;94125.38;5098077;28;20020;-43
2021/12/22 05:41:18;;;;;;;10.90;6.05;;;;;;;-11.30;65.15;94129.19;5094029;28;20031;-42
2021/12/22 05:43:44;;;;;;;14.02;6.57;;;;;;;-11.35;65.12;94129.63;5093532;28;20034;-42
2021/12/22 05:46:12;;;;;;;9.85;5.45;;;;;;;-11.30;64.90;94133.78;5102775;28;20024;-42
2021/12/22 05:48:38;;;;;;;26.23;11.48;;;;;;;-11.42;65.02;94132.34;5111564;28;20499;-42
2021/12/22 05:51:04;;;;;;;17.98;9.93;;;;;;;-11.35;64.58;94126.19;5083201;28;20024;-41
2021/12/22 05:53:30;;;;;;;26.67;13.18;;;;;;;-11.42;65.01;94126.25;5084097;28;20443;-41
2021/12/22 05:55:56;;;;;;;24.23;12.85;;;;;;;-11.37;66.07;94131.16;5107055;28;20032;-41
2021/12/22 05:58:27;;;;;;;23.10;12.80;;;;;;;-11.56;66.52;94127.09;5093198;28;20513;-40
2021/12/22 06:00:52;;;;;;;26.65;17.35;;;;;;;-11.56;67.04;94131.69;5100278;28;20450;-42
2021/12/22 06:03:18;;;;;;;43.92;18.10;;;;;;;-11.54;67.64;94130.13;5113667;28;20102;-42
2021/12/22 06:05:43;;;;;;;45.72;18.63;;;;;;;-11.41;67.77;94130.44;5113506;28;20024;-42
2021/12/22 06:08:09;;;;;;;77.60;29.88;;;;;;;-11.35;66.80;94134.94;5112955;28;20027;-42
2021/12/22 06:10:35;;;;;;;62.47;24.55;;;;;;;-11.24;66.20;94134.84;5093173;28;20028;-43
2021/12/22 06:13:03;;;;;;;48.45;16.73;;;;;;;-11.37;67.08;94105.28;5093101;28;20508;-42
2021/12/22 06:15:29;;;;;;;25.33;13.18;;;;;;;-11.11;65.52;94133.94;5093275;28;20489;-41
2021/12/22 06:17:57;;;;;;;21.25;11.90;;;;;;;-10.99;64.84;94143.38;5093180;28;20034;-42
2021/12/22 06:20:23;;;;;;;20.70;13.35;;;;;;;-10.91;66.66;94132.25;5093425;28;20518;-42
2021/12/22 06:22:48;;;;;;;37.45;17.77;;;;;;;-10.97;65.91;94141.06;5092842;28;20031;-41
2021/12/22 06:25:14;;;;;;;42.83;20.02;;;;;;;-11.07;66.17;94145.38;5093157;28;20085;-42
2021/12/22 06:27:39;;;;;;;40.05;21.63;;;;;;;-10.96;65.76;94124.66;5091717;28;20066;-42
2021/12/22 06:30:06;;;;;;;28.52;15.07;;;;;;;-10.85;65.11;94152.00;5092930;28;20032;-41
2021/12/22 06:32:31;;;;;;;25.13;13.93;;;;;;;-10.88;65.92;94147.47;5092765;28;20106;-41
2021/12/22 06:34:56;;;;;;;18.27;10.48;;;;;;;-10.98;65.62;94140.31;5092617;28;20107;-41
2021/12/22 06:37:22;;;;;;;15.20;8.13;;;;;;;-11.02;65.50;94150.25;5092929;28;20027;-42
2021/12/22 06:39:48;;;;;;;14.98;8.63;;;;;;;-10.96;65.47;94147.94;5091346;28;20016;-41
2021/12/22 06:42:23;;;;;;;19.48;11.35;;;;;;;-10.89;65.45;94151.28;5092549;28;20027;-42
2021/12/22 06:44:49;;;;;;;34.50;17.00;;;;;;;-10.80;64.79;94142.81;5106550;28;20133;-42
2021/12/22 06:47:15;;;;;;;38.33;21.23;;;;;;;-10.76;65.95;94150.78;5112824;28;20024;-41
2021/12/22 06:49:40;;;;;;;30.30;17.50;;;;;;;-10.88;66.38;94152.81;5112378;28;20011;-41
2021/12/22 06:52:06;;;;;;;29.63;15.73;;;;;;;-10.99;66.86;94159.38;5111937;28;20044;-41
2021/12/22 06:54:32;;;;;;;36.97;18.23;;;;;;;-10.67;67.59;94149.16;5112678;28;20106;-41
2021/12/22 06:56:57;;;;;;;39.72;19.23;;;;;;;-10.76;66.09;94154.19;5101961;28;20027;-42
2021/12/22 06:59:23;;;;;;;48.20;23.98;;;;;;;-11.03;66.95;94151.41;5092162;28;20043;-42
2021/12/22 07:01:50;;;;;;;46.55;23.25;;;;;;;-11.13;67.27;94146.91;5106378;28;20032;-41
2021/12/22 07:04:16;;;;;;;21.60;11.75;;;;;;;-11.02;67.85;94155.59;5112565;28;20019;-41
2021/12/22 07:06:41;;;;;;;26.27;12.63;;;;;;;-10.77;68.95;94155.38;5072939;28;20541;-41
2021/12/22 07:09:08;;;;;;;19.80;12.13;;;;;;;-10.59;69.61;94155.19;5099352;28;20102;-41
2021/12/22 07:11:34;;;;;;;20.17;10.55;;;;;;;-10.20;70.54;94150.91;5109756;28;20035;-41
2021/12/22 07:14:01;;;;;;;27.92;10.85;;;;;;;-9.89;69.45;94140.97;5109804;28;20445;-41
2021/12/22 07:16:27;;;;;;;39.05;18.75;;;;;;;-9.49;68.96;94148.03;5109237;28;20031;-42
2021/12/22 07:18:53;;;;;;;32.35;13.77;;;;;;;-9.07;67.92;94141.25;5109065;28;20024;-42
2021/12/22 07:21:22;;;;;;;32.83;17.83;;;;;;;-8.65;66.73;94139.78;5109429;28;20102;-42
2021/12/22 07:23:47;;;;;;;;;;;;;;;-8.01;65.98;94145.41;5109828;28;20039;-43
2021/12/22 07:26:16;;;;;;;29.17;16.23;;;;;;;-7.54;63.72;94153.25;5109673;28;19941;-43
2021/12/22 07:28:43;;;;;;;27.02;14.98;;;;;;;-6.96;61.80;94145.00;5109426;28;20573;-41
2021/12/22 07:31:09;;;;;;;31.17;14.60;;;;;;;-6.79;61.70;94143.06;5094249;28;20123;-42
2021/12/22 07:33:35;;;;;;;37.00;17.92;;;;;;;-6.36;60.76;94145.41;5088277;28;20024;-42
2021/12/22 07:36:04;;;;;;;50.60;20.02;;;;;;;-5.99;60.00;94141.34;5087750;28;20027;-42
2021/12/22 07:38:39;;;;;;;40.00;19.30;;;;;;;-5.61;58.61;94144.84;5087390;28;20050;-42
2021/12/22 07:41:06;;;;;;;51.08;26.58;;;;;;;-5.35;58.09;94142.94;5087522;28;20048;-42
2021/12/22 07:43:32;;;;;;;67.50;31.63;;;;;;;-5.18;57.94;94139.72;5086523;28;20062;-43
2021/12/22 07:45:58;;;;;;;53.13;26.63;;;;;;;-4.92;58.21;94143.13;5087689;28;20056;-42
2021/12/22 07:48:24;;;;;;;49.60;26.17;;;;;;;-4.51;58.10;94142.19;5087374;28;20020;-43
2021/12/22 07:50:49;;;;;;;49.33;25.23;;;;;;;-4.18;56.99;94138.72;5087770;28;20043;-44
2021/12/22 07:53:15;;;;;;;52.58;28.30;;;;;;;-4.17;56.39;94142.94;5087323;28;20570;-42
2021/12/22 07:55:41;;;;;;;39.03;20.52;;;;;;;-4.20;56.56;94143.81;5087784;28;20031;-41
2021/12/22 07:58:10;;;;;;;58.88;30.35;;;;;;;-4.24;57.37;94134.34;5087086;28;20619;-43
2021/12/22 08:00:37;;;;;;;48.00;24.25;;;;;;;-3.99;56.82;94136.94;5087944;28;20056;-44
2021/12/22 08:03:05;;;;;;;38.38;23.38;;;;;;;-3.81;57.03;94150.53;5089523;28;20039;-44
2021/12/22 08:05:31;;;;;;;41.22;23.15;;;;;;;-3.02;56.49;94151.88;5089001;28;20034;-43
2021/12/22 08:07:58;;;;;;;42.88;18.67;;;;;;;-2.51;53.35;94148.25;5088827;28;20028;-45
2021/12/22 08:10:24;;;;;;;35.72;18.27;;;;;;;-1.84;52.88;94161.69;5089271;28;20035;-42
2021/12/22 08:12:49;;;;;;;39.17;19.17;;;;;;;-1.18;52.05;94142.94;5089134;28;20435;-43
2021/12/22 08:15:15;;;;;;;18.77;11.48;;;;;;;-0.05;49.02;94141.75;5088996;28;20112;-43
2021/12/22 08:17:42;;;;;;;18.70;10.85;;;;;;;-0.16;47.41;94146.97;5088961;28;20024;-43
2021/12/22 08:20:08;;;;;;;11.73;8.23;;;;;;;-0.31;46.45;94139.97;5088842;28;20110;-43
2021/12/22 08:22:33;;;;;;;15.50;9.30;;;;;;;-0.29;47.51;94146.44;5086094;28;20508;-43
2021/12/22 08:24:59;;;;;;;16.42;9.90;;;;;;;-0.24;48.22;94164.06;5085883;28;20046;-41
2021/12/22 08:27:24;;;;;;;35.80;22.10;;;;;;;-0.07;47.56;94165.91;5087842;28;20020;-42
2021/12/22 08:29:51;;;;;;;31.85;20.02;;;;;;;0.07;47.74;94169.09;5088016;28;20043;-42
2021/12/22 08:32:19;;;;;;;26.85;17.42;;;;;;;0.40;47.17;94169.75;5087881;28;20032;-41
2021/12/22 08:34:47;;;;;;;19.17;13.93;;;;;;;0.48;46.30;94160.78;5087821;28;20161;-43
2021/12/22 08:39:59;;;;;;;16.42;10.43;;;;;;;0.17;46.29;94168.59;5087911;28;20428;-41
2021/12/22 08:42:25;;;;;;;16.58;11.45;;;;;;;-0.05;46.48;94171.63;5086635;28;20028;-42
2021/12/22 08:44:52;;;;;;;18.35;11.48;;;;;;;-0.31;48.63;94173.28;5087762;28;20043;-42
2021/12/22 08:47:18;;;;;;;19.38;12.15;;;;;;;-0.34;47.42;94160.63;5087904;28;20602;-41
2021/12/22 08:49:44;;;;;;;28.95;16.30;;;;;;;-0.46;48.17;94161.63;5087211;28;20070;-41
2021/12/22 08:52:10;;;;;;;18.00;10.38;;;;;;;-0.69;48.53;94156.16;5089770;28;20031;-42
2021/12/22 08:54:38;;;;;;;21.10;10.63;;;;;;;-0.50;49.92;94141.28;5089950;28;20028;-42
2021/12/22 08:57:04;;;;;;;74.50;35.25;;;;;;;0.03;48.42;94157.66;5090687;28;20614;-42
2021/12/22 08:59:30;;;;;;;60.50;29.92;;;;;;;0.12;47.38;94150.22;5090914;28;20063;-43
2021/12/22 09:01:55;;;;;;;29.40;14.48;;;;;;;0.18;47.99;94148.34;5089818;28;20036;-43
2021/12/22 09:04:21;;;;;;;22.20;12.65;;;;;;;0.06;48.63;94146.66;5090766;28;20548;-43
2021/12/22 09:06:48;;;;;;;28.02;15.70;;;;;;;-0.11;49.27;94149.00;5090309;28;20051;-42
2021/12/22 09:09:15;;;;;;;22.42;14.13;;;;;;;-0.04;49.24;94145.97;5090272;28;20024;-42
2021/12/22 09:11:41;;;;;;;18.40;12.23;;;;;;;0.28;49.09;94144.34;5090771;28;20023;-43
2021/12/22 09:14:08;;;;;;;30.13;17.15;;;;;;;0.36;47.74;94137.34;5091228;28;20150;-43
2021/12/22 09:16:35;;;;;;;43.97;22.58;;;;;;;0.44;47.90;94137.72;5091021;28;20096;-43
2021/12/22 09:19:01;;;;;;;55.78;28.73;;;;;;;0.53;48.59;94141.13;5091191;28;20028;-43
2021/12/22 09:21:26;;;;;;;21.27;14.40;;;;;;;0.69;47.52;94139.91;5091136;28;20427;-43
2021/12/22 09:23:52;;;;;;;18.38;11.05;;;;;;;1.00;47.24;94142.88;5090817;28;20107;-40
2021/12/22 09:26:18;;;;;;;16.20;11.27;;;;;;;0.97;45.99;94137.66;5090750;28;20023;-42
2021/12/22 09:28:43;;;;;;;20.20;11.75;;;;;;;0.90;46.71;94141.50;5090724;28;20036;-43
2021/12/22 09:31:09;;;;;;;14.98;10.80;;;;;;;0.82;46.68;94139.63;5090453;28;20039;-42
2021/12/22 09:33:36;;;;;;;20.80;12.30;;;;;;;0.54;47.17;94145.31;5090689;28;20020;-43
2021/12/22 09:36:04;;;;;;;18.55;10.80;;;;;;;0.85;47.45;94142.16;5090228;28;20024;-43
2021/12/22 09:38:29;;;;;;;20.65;13.00;;;;;;;1.59;47.87;94137.34;5090602;28;20107;-42
2021/12/22 09:40:55;;;;;;;20.60;12.27;;;;;;;2.09;45.62;94134.03;5090303;28;20158;-43
2021/12/22 09:43:20;;;;;;;16.90;10.85;;;;;;;2.21;44.09;94137.63;5088906;28;20615;-43
2021/12/22 09:45:51;;;;;;;17.60;9.95;;;;;;;2.03;44.75;94132.47;5090045;28;20027;-43
2021/12/22 09:50:54;;;;;;;39.90;21.63;;;;;;;1.39;47.03;94130.63;5092391;28;20028;-42
2021/12/22 09:53:23;;;;;;;41.50;21.80;;;;;;;0.97;46.75;94127.53;5092880;28;20024;-43
2021/12/22 09:55:49;;;;;;;30.45;16.52;;;;;;;0.85;47.32;94128.56;5092406;28;20031;-42
2021/12/22 09:58:16;;;;;;;19.88;11.88;;;;;;;1.12;49.54;94122.81;5092412;28;20444;-43
2021/12/22 10:00:43;;;;;;;18.08;9.85;;;;;;;1.04;48.34;94121.69;5092431;28;20028;-43
2021/12/22 10:03:09;;;;;;;14.90;8.52;;;;;;;0.92;48.20;94120.03;5090958;28;20463;-42
2021/12/22 10:05:36;;;;;;;11.10;6.13;;;;;;;1.39;48.37;94116.28;5092647;28;20047;-44
2021/12/22 10:08:11;;;;;;;12.27;7.95;;;;;;;1.86;48.10;94104.28;5092131;28;20490;-44
2021/12/22 10:10:41;;;;;;;12.23;8.35;;;;;;;2.41;46.45;94115.06;5092049;28;20526;-44
2021/12/22 10:13:27;;;;;;;13.80;8.75;;;;;;;3.04;45.86;94105.72;5092309;28;20024;-44
2021/12/22 10:15:57;;;;;;;15.10;11.32;;;;;;;3.89;45.05;94105.78;5091937;28;20028;-43
2021/12/22 10:18:25;;;;;;;10.77;8.50;;;;;;;4.47;42.82;94107.75;5092140;28;20023;-43
2021/12/22 10:20:53;;;;;;;13.13;8.97;;;;;;;4.95;42.19;94110.31;5092319;28;20443;-43
2021/12/22 10:23:22;;;;;;;19.15;9.65;;;;;;;5.12;41.39;94108.34;5091922;28;20434;-43
2021/12/22 10:26:02;;;;;;;8.68;6.88;;;;;;;5.50;41.26;94109.56;5092101;28;20459;-46
2021/12/22 10:28:29;;;;;;;21.77;13.48;;;;;;;5.65;40.02;94104.56;5091729;28;20402;-44
2021/12/22 10:31:01;;;;;;;10.73;8.02;;;;;;;5.53;39.73;94101.09;5091871;28;20035;-42
2021/12/22 10:33:29;;;;;;;9.20;6.35;;;;;;;4.81;39.22;94100.38;5092106;28;20149;-43
2021/12/22 10:36:00;;;;;;;9.95;7.65;;;;;;;4.73;40.69;94096.59;5091569;28;20020;-45
2021/12/22 10:38:28;;;;;;;9.30;6.68;;;;;;;4.52;41.21;94094.09;5091953;28;20058;-44
2021/12/22 10:41:01;;;;;;;10.55;7.50;;;;;;;4.42;42.63;94089.31;5091785;28;20023;-44
2021/12/22 10:43:29;;;;;;;11.90;6.60;;;;;;;4.49;41.04;94089.59;5091883;28;20039;-43
2021/12/22 10:45:59;;;;;;;11.77;6.28;;;;;;;4.28;42.34;94098.50;5091429;28;20574;-46
2021/12/22 10:51:19;;;;;;;24.33;12.60;;;;;;;4.09;42.74;94090.00;5091526;28;20058;-40
2021/12/22 10:53:47;;;;;;;25.50;12.68;;;;;;;4.20;42.62;94086.53;5091285;28;20085;-42
2021/12/22 10:56:31;;;;;;;7.45;6.18;;;;;;;4.23;42.44;94083.56;5091223;28;20386;-43
2021/12/22 10:59:10;;;;;;;23.23;9.20;;;;;;;4.17;41.81;94087.53;5091140;28;20094;-42
2021/12/22 11:01:38;;;;;;;7.70;5.95;;;;;;;4.03;41.71;94077.53;5091205;28;20103;-43
2021/12/22 11:04:14;;;;;;;17.40;9.95;;;;;;;4.04;42.91;94079.03;5090974;28;20092;-43
2021/12/22 11:06:40;;;;;;;13.65;8.95;;;;;;;4.33;42.30;94073.91;5091417;28;20463;-44
2021/12/22 11:09:15;;;;;;;16.95;10.77;;;;;;;4.46;41.87;94065.25;5090081;28;20028;-44
2021/12/22 11:11:42;;;;;;;19.33;11.57;;;;;;;4.77;40.66;94067.75;5091208;28;20027;-42
2021/12/22 11:14:29;;;;;;;25.45;13.00;;;;;;;4.89;41.62;94061.06;5090628;28;20157;-44
2021/12/22 11:17:04;;;;;;;13.02;8.23;;;;;;;4.93;41.21;94052.59;5070597;28;20044;-42
2021/12/22 11:19:32;;;;;;;14.45;8.20;;;;;;;5.48;41.08;94052.53;5073293;28;20020;-43
2021/12/22 11:22:04;;;;;;;11.48;8.07;;;;;;;5.89;38.92;94053.44;5088859;28;20036;-44
2021/12/22 11:24:31;;;;;;;11.80;7.32;;;;;;;5.33;39.47;94057.53;5079826;28;20028;-40
2021/12/22 11:26:57;;;;;;;10.00;6.68;;;;;;;4.75;40.27;94053.84;5079059;28;20110;-41
2021/12/22 11:29:24;;;;;;;14.52;7.88;;;;;;;4.89;40.68;94046.63;5090258;28;20032;-40
2021/12/22 11:31:51;;;;;;;9.48;6.88;;;;;;;4.88;40.22;94050.59;5090808;28;20484;-41
2021/12/22 11:34:17;;;;;;;10.13;7.22;;;;;;;5.43;40.89;94044.34;5080516;28;20421;-43
2021/12/22 11:36:44;;;;;;;10.77;7.10;;;;;;;5.60;39.31;94042.31;5067978;28;20088;-44
2021/12/22 11:39:10;;;;;;;8.82;7.35;;;;;;;5.67;39.39;94026.13;5071436;28;20016;-42
2021/12/22 11:41:43;;;;;;;10.20;7.97;;;;;;;5.68;40.81;94032.31;5073564;28;20478;-41
2021/12/22 11:44:12;;;;;;;13.60;9.05;;;;;;;5.17;40.97;94036.44;5067874;28;20036;-40
2021/12/22 11:46:37;;;;;;;;;;;;;;;4.65;42.29;94040.91;5068516;28;20032;-41
2021/12/22 11:49:04;;;;;;;11.90;8.80;;;;;;;3.91;43.51;94043.22;5067708;28;19920;-40